sensor_id;sensor_type;location;lat;lon;timestamp;temperature;humidity
38902;DHT22;24661;53.566;9.910;2023-04-15T00:00:38;7.90;99.90
38902;DHT22;24661;53.566;9.910;2023-04-15T00:03:04;7.80;99.90
38902;DHT22;24661;53.566;9.910;2023-04-15T00:05:30;8.50;99.90
38902;DHT22;24661;53.566;9.910;2023-04-15T00:08:00;7.90;99.90
38902;DHT22;24661;53.566;9.910;2023-04-15T00:10:26;8.10;99.90
38902;DHT22;24661;53.566;9.910;2023-04-15T00:12:52;7.80;99.90
38902;DHT22;24661;53.566;9.910;2023-04-15T00:15:18;7.80;99.90
38902;DHT22;24661;53.566;9.910;2023-04-15T00:17:44;7.80;99.90
38902;DHT22;24661;53.566;9.910;2023-04-15T00:20:10;7.70;99.90
38902;DHT22;24661;53.566;9.910;2023-04-15T00:22:36;7.80;99.90
38902;DHT22;24661;53.566;9.910;2023-04-15T00:25:02;7.70;99.90
38902;DHT22;24661;53.566;9.910;2023-04-15T00:27:27;7.60;99.90
38902;DHT22;24661;53.566;9.910;2023-04-15T00:29:54;7.60;99.90
38902;DHT22;24661;53.566;9.910;2023-04-15T00:32:19;7.60;99.90
38902;DHT22;24661;53.566;9.910;2023-04-15T00:34:45;7.60;99.90
38902;DHT22;24661;53.566;9.910;2023-04-15T00:37:10;7.50;99.90
38902;DHT22;24661;53.566;9.910;2023-04-15T00:39:36;7.60;99.90
38902;DHT22;24661;53.566;9.910;2023-04-15T00:42:03;7.60;99.90
38902;DHT22;24661;53.566;9.910;2023-04-15T00:44:29;7.60;99.90
38902;DHT22;24661;53.566;9.910;2023-04-15T00:46:56;7.60;99.90
38902;DHT22;24661;53.566;9.910;2023-04-15T00:49:22;7.60;99.90
38902;DHT22;24661;53.566;9.910;2023-04-15T00:51:48;7.50;99.90
38902;DHT22;24661;53.566;9.910;2023-04-15T00:54:13;7.50;99.90
38902;DHT22;24661;53.566;9.910;2023-04-15T00:56:39;7.50;99.90
38902;DHT22;24661;53.566;9.910;2023-04-15T00:59:05;7.50;99.90
38902;DHT22;24661;53.566;9.910;2023-04-15T01:01:34;7.50;99.90
38902;DHT22;24661;53.566;9.910;2023-04-15T01:04:00;7.50;99.90
38902;DHT22;24661;53.566;9.910;2023-04-15T01:06:26;7.50;99.90
38902;DHT22;24661;53.566;9.910;2023-04-15T01:08:53;7.40;99.90
38902;DHT22;24661;53.566;9.910;2023-04-15T01:11:19;7.50;99.90
38902;DHT22;24661;53.566;9.910;2023-04-15T01:13:45;7.40;99.90
38902;DHT22;24661;53.566;9.910;2023-04-15T01:16:11;7.50;99.90
38902;DHT22;24661;53.566;9.910;2023-04-15T01:18:38;7.50;99.90
38902;DHT22;24661;53.566;9.910;2023-04-15T01:21:05;7.50;99.90
38902;DHT22;24661;53.566;9.910;2023-04-15T01:23:32;7.40;99.90
38902;DHT22;24661;53.566;9.910;2023-04-15T01:25:58;7.50;99.90
38902;DHT22;24661;53.566;9.910;2023-04-15T01:28:24;7.50;99.90
38902;DHT22;24661;53.566;9.910;2023-04-15T01:31:03;7.50;99.90
38902;DHT22;24661;53.566;9.910;2023-04-15T01:33:29;7.40;99.90
38902;DHT22;24661;53.566;9.910;2023-04-15T01:35:55;7.40;99.90
38902;DHT22;24661;53.566;9.910;2023-04-15T01:38:21;7.40;99.90
38902;DHT22;24661;53.566;9.910;2023-04-15T01:40:47;7.40;99.90
38902;DHT22;24661;53.566;9.910;2023-04-15T01:43:13;7.30;99.90
38902;DHT22;24661;53.566;9.910;2023-04-15T01:45:39;7.40;99.90
38902;DHT22;24661;53.566;9.910;2023-04-15T01:48:06;7.40;99.90
38902;DHT22;24661;53.566;9.910;2023-04-15T01:50:31;7.40;99.90
38902;DHT22;24661;53.566;9.910;2023-04-15T01:52:57;7.40;99.90
38902;DHT22;24661;53.566;9.910;2023-04-15T01:55:23;7.40;99.90
38902;DHT22;24661;53.566;9.910;2023-04-15T01:57:48;7.40;99.90
38902;DHT22;24661;53.566;9.910;2023-04-15T02:00:14;7.40;99.90
38902;DHT22;24661;53.566;9.910;2023-04-15T02:02:39;7.30;99.90
38902;DHT22;24661;53.566;9.910;2023-04-15T02:05:05;7.30;99.90
38902;DHT22;24661;53.566;9.910;2023-04-15T02:07:31;7.30;99.90
38902;DHT22;24661;53.566;9.910;2023-04-15T02:09:57;7.30;99.90
38902;DHT22;24661;53.566;9.910;2023-04-15T02:12:22;7.30;99.90
38902;DHT22;24661;53.566;9.910;2023-04-15T02:14:48;7.30;99.90
38902;DHT22;24661;53.566;9.910;2023-04-15T02:17:13;7.30;99.90
38902;DHT22;24661;53.566;9.910;2023-04-15T02:19:39;7.40;99.90
38902;DHT22;24661;53.566;9.910;2023-04-15T02:22:05;7.40;99.90
38902;DHT22;24661;53.566;9.910;2023-04-15T02:24:32;7.40;99.90
38902;DHT22;24661;53.566;9.910;2023-04-15T02:26:57;7.40;99.90
38902;DHT22;24661;53.566;9.910;2023-04-15T02:29:23;7.40;99.90
38902;DHT22;24661;53.566;9.910;2023-04-15T02:31:49;7.50;99.90
38902;DHT22;24661;53.566;9.910;2023-04-15T02:34:14;7.40;99.90
38902;DHT22;24661;53.566;9.910;2023-04-15T02:36:40;7.40;99.90
38902;DHT22;24661;53.566;9.910;2023-04-15T02:39:06;7.40;99.90
38902;DHT22;24661;53.566;9.910;2023-04-15T02:41:32;7.40;99.90
38902;DHT22;24661;53.566;9.910;2023-04-15T02:43:57;7.40;99.90
38902;DHT22;24661;53.566;9.910;2023-04-15T02:46:23;7.50;99.90
38902;DHT22;24661;53.566;9.910;2023-04-15T02:48:49;7.40;99.90
38902;DHT22;24661;53.566;9.910;2023-04-15T02:51:18;7.40;99.90
38902;DHT22;24661;53.566;9.910;2023-04-15T02:53:44;7.40;99.90
38902;DHT22;24661;53.566;9.910;2023-04-15T02:56:10;7.40;99.90
38902;DHT22;24661;53.566;9.910;2023-04-15T02:58:36;7.40;99.90
38902;DHT22;24661;53.566;9.910;2023-04-15T03:01:02;7.40;99.90
38902;DHT22;24661;53.566;9.910;2023-04-15T03:03:28;7.50;99.90
38902;DHT22;24661;53.566;9.910;2023-04-15T03:05:53;7.50;99.90
38902;DHT22;24661;53.566;9.910;2023-04-15T03:08:19;7.50;99.90
38902;DHT22;24661;53.566;9.910;2023-04-15T03:10:47;7.40;99.90
38902;DHT22;24661;53.566;9.910;2023-04-15T03:13:13;7.50;99.90
38902;DHT22;24661;53.566;9.910;2023-04-15T03:15:38;7.40;99.90
38902;DHT22;24661;53.566;9.910;2023-04-15T03:18:04;7.40;99.90
38902;DHT22;24661;53.566;9.910;2023-04-15T03:20:30;7.40;99.90
38902;DHT22;24661;53.566;9.910;2023-04-15T03:22:55;7.50;99.90
38902;DHT22;24661;53.566;9.910;2023-04-15T03:25:21;7.50;99.90
38902;DHT22;24661;53.566;9.910;2023-04-15T03:27:47;7.50;99.90
38902;DHT22;24661;53.566;9.910;2023-04-15T03:30:12;7.50;99.90
38902;DHT22;24661;53.566;9.910;2023-04-15T03:32:38;7.50;99.90
38902;DHT22;24661;53.566;9.910;2023-04-15T03:35:04;7.50;99.90
38902;DHT22;24661;53.566;9.910;2023-04-15T03:37:30;7.60;99.90
38902;DHT22;24661;53.566;9.910;2023-04-15T03:39:56;7.60;99.90
38902;DHT22;24661;53.566;9.910;2023-04-15T03:42:22;7.60;99.90
38902;DHT22;24661;53.566;9.910;2023-04-15T03:44:47;7.60;99.90
38902;DHT22;24661;53.566;9.910;2023-04-15T03:47:13;7.60;99.90
38902;DHT22;24661;53.566;9.910;2023-04-15T03:49:38;7.60;99.90
38902;DHT22;24661;53.566;9.910;2023-04-15T03:52:04;7.60;99.90
38902;DHT22;24661;53.566;9.910;2023-04-15T03:54:30;7.60;99.90
38902;DHT22;24661;53.566;9.910;2023-04-15T03:56:56;7.60;99.90
38902;DHT22;24661;53.566;9.910;2023-04-15T03:59:22;7.60;99.90
38902;DHT22;24661;53.566;9.910;2023-04-15T04:01:47;7.60;99.90
38902;DHT22;24661;53.566;9.910;2023-04-15T04:04:13;7.60;99.90
38902;DHT22;24661;53.566;9.910;2023-04-15T04:06:39;7.60;99.90
38902;DHT22;24661;53.566;9.910;2023-04-15T04:09:04;7.70;99.90
38902;DHT22;24661;53.566;9.910;2023-04-15T04:11:30;7.70;99.90
38902;DHT22;24661;53.566;9.910;2023-04-15T04:13:56;7.70;99.90
38902;DHT22;24661;53.566;9.910;2023-04-15T04:16:21;9.10;99.90
38902;DHT22;24661;53.566;9.910;2023-04-15T04:18:47;7.70;99.90
38902;DHT22;24661;53.566;9.910;2023-04-15T04:21:12;7.70;99.90
38902;DHT22;24661;53.566;9.910;2023-04-15T04:23:38;7.70;99.90
38902;DHT22;24661;53.566;9.910;2023-04-15T04:26:04;7.70;99.90
38902;DHT22;24661;53.566;9.910;2023-04-15T04:28:29;7.70;99.90
38902;DHT22;24661;53.566;9.910;2023-04-15T04:30:55;7.70;99.90
38902;DHT22;24661;53.566;9.910;2023-04-15T04:33:20;7.80;99.90
38902;DHT22;24661;53.566;9.910;2023-04-15T04:35:46;7.80;99.90
38902;DHT22;24661;53.566;9.910;2023-04-15T04:38:12;7.80;99.90
38902;DHT22;24661;53.566;9.910;2023-04-15T04:40:37;7.70;99.90
38902;DHT22;24661;53.566;9.910;2023-04-15T04:43:03;7.80;99.90
38902;DHT22;24661;53.566;9.910;2023-04-15T04:45:29;7.80;99.90
38902;DHT22;24661;53.566;9.910;2023-04-15T04:47:55;7.80;99.90
38902;DHT22;24661;53.566;9.910;2023-04-15T04:50:20;7.70;99.90
38902;DHT22;24661;53.566;9.910;2023-04-15T04:52:46;7.80;99.90
38902;DHT22;24661;53.566;9.910;2023-04-15T04:55:11;7.80;99.90
38902;DHT22;24661;53.566;9.910;2023-04-15T04:57:37;7.70;99.90
38902;DHT22;24661;53.566;9.910;2023-04-15T05:00:05;7.80;99.90
38902;DHT22;24661;53.566;9.910;2023-04-15T05:02:32;7.80;99.90
38902;DHT22;24661;53.566;9.910;2023-04-15T05:04:58;7.80;99.90
38902;DHT22;24661;53.566;9.910;2023-04-15T05:07:23;7.90;99.90
38902;DHT22;24661;53.566;9.910;2023-04-15T05:09:49;7.80;99.90
38902;DHT22;24661;53.566;9.910;2023-04-15T05:12:15;7.80;99.90
38902;DHT22;24661;53.566;9.910;2023-04-15T05:14:40;7.80;99.90
38902;DHT22;24661;53.566;9.910;2023-04-15T05:17:07;7.90;99.90
38902;DHT22;24661;53.566;9.910;2023-04-15T05:19:32;7.90;99.90
38902;DHT22;24661;53.566;9.910;2023-04-15T05:21:58;7.90;99.90
38902;DHT22;24661;53.566;9.910;2023-04-15T05:24:24;7.90;99.90
38902;DHT22;24661;53.566;9.910;2023-04-15T05:26:50;8.00;99.90
38902;DHT22;24661;53.566;9.910;2023-04-15T05:29:15;7.90;99.90
38902;DHT22;24661;53.566;9.910;2023-04-15T05:31:41;8.00;99.90
38902;DHT22;24661;53.566;9.910;2023-04-15T05:34:07;7.90;99.90
38902;DHT22;24661;53.566;9.910;2023-04-15T05:36:33;9.00;99.90
38902;DHT22;24661;53.566;9.910;2023-04-15T05:38:58;7.90;99.90
38902;DHT22;24661;53.566;9.910;2023-04-15T05:41:25;8.00;99.90
38902;DHT22;24661;53.566;9.910;2023-04-15T05:43:50;8.00;99.90
38902;DHT22;24661;53.566;9.910;2023-04-15T05:46:16;8.00;99.90
38902;DHT22;24661;53.566;9.910;2023-04-15T05:48:41;8.00;99.90
38902;DHT22;24661;53.566;9.910;2023-04-15T05:51:07;8.00;99.90
38902;DHT22;24661;53.566;9.910;2023-04-15T05:53:32;8.00;99.90
38902;DHT22;24661;53.566;9.910;2023-04-15T05:55:58;8.00;99.90
38902;DHT22;24661;53.566;9.910;2023-04-15T05:58:24;8.00;99.90
38902;DHT22;24661;53.566;9.910;2023-04-15T06:00:50;8.00;99.90
38902;DHT22;24661;53.566;9.910;2023-04-15T06:03:15;8.00;99.90
38902;DHT22;24661;53.566;9.910;2023-04-15T06:05:41;8.00;99.90
38902;DHT22;24661;53.566;9.910;2023-04-15T06:08:06;8.00;99.90
38902;DHT22;24661;53.566;9.910;2023-04-15T06:10:34;8.00;99.90
38902;DHT22;24661;53.566;9.910;2023-04-15T06:13:01;8.10;99.90
38902;DHT22;24661;53.566;9.910;2023-04-15T06:15:28;8.10;99.90
38902;DHT22;24661;53.566;9.910;2023-04-15T06:17:54;8.10;99.90
38902;DHT22;24661;53.566;9.910;2023-04-15T06:20:19;8.10;99.90
38902;DHT22;24661;53.566;9.910;2023-04-15T06:22:45;8.10;99.90
38902;DHT22;24661;53.566;9.910;2023-04-15T06:25:10;8.10;99.90
38902;DHT22;24661;53.566;9.910;2023-04-15T06:27:36;8.20;99.90
38902;DHT22;24661;53.566;9.910;2023-04-15T06:30:02;8.20;99.90
38902;DHT22;24661;53.566;9.910;2023-04-15T06:32:28;8.20;99.90
38902;DHT22;24661;53.566;9.910;2023-04-15T06:34:54;8.30;99.90
38902;DHT22;24661;53.566;9.910;2023-04-15T06:37:19;8.20;99.90
38902;DHT22;24661;53.566;9.910;2023-04-15T06:39:45;8.20;99.90
38902;DHT22;24661;53.566;9.910;2023-04-15T06:42:11;8.20;99.90
38902;DHT22;24661;53.566;9.910;2023-04-15T06:44:37;8.20;99.90
38902;DHT22;24661;53.566;9.910;2023-04-15T06:47:02;8.20;99.90
38902;DHT22;24661;53.566;9.910;2023-04-15T06:49:28;8.30;99.90
38902;DHT22;24661;53.566;9.910;2023-04-15T06:51:54;8.30;99.90
38902;DHT22;24661;53.566;9.910;2023-04-15T06:54:20;8.30;99.90
38902;DHT22;24661;53.566;9.910;2023-04-15T06:56:45;8.40;99.90
38902;DHT22;24661;53.566;9.910;2023-04-15T06:59:12;8.40;99.90
38902;DHT22;24661;53.566;9.910;2023-04-15T07:01:39;8.50;99.90
38902;DHT22;24661;53.566;9.910;2023-04-15T07:04:05;8.50;99.90
38902;DHT22;24661;53.566;9.910;2023-04-15T07:06:31;8.50;99.90
38902;DHT22;24661;53.566;9.910;2023-04-15T07:08:57;8.50;99.90
38902;DHT22;24661;53.566;9.910;2023-04-15T07:11:25;8.50;99.90
38902;DHT22;24661;53.566;9.910;2023-04-15T07:13:51;9.60;99.90
38902;DHT22;24661;53.566;9.910;2023-04-15T07:16:17;8.60;99.90
38902;DHT22;24661;53.566;9.910;2023-04-15T07:18:42;8.60;99.90
38902;DHT22;24661;53.566;9.910;2023-04-15T07:21:08;8.60;99.90
38902;DHT22;24661;53.566;9.910;2023-04-15T07:23:34;8.70;99.90
38902;DHT22;24661;53.566;9.910;2023-04-15T07:25:59;8.70;99.90
38902;DHT22;24661;53.566;9.910;2023-04-15T07:28:26;8.70;99.90
38902;DHT22;24661;53.566;9.910;2023-04-15T07:30:51;8.70;99.90
38902;DHT22;24661;53.566;9.910;2023-04-15T07:33:17;8.70;99.90
38902;DHT22;24661;53.566;9.910;2023-04-15T07:35:43;8.80;99.90
38902;DHT22;24661;53.566;9.910;2023-04-15T07:38:09;8.70;99.90
38902;DHT22;24661;53.566;9.910;2023-04-15T07:40:37;8.80;99.90
38902;DHT22;24661;53.566;9.910;2023-04-15T07:43:03;8.90;99.90
38902;DHT22;24661;53.566;9.910;2023-04-15T07:45:30;8.90;99.90
38902;DHT22;24661;53.566;9.910;2023-04-15T07:47:55;9.00;99.90
38902;DHT22;24661;53.566;9.910;2023-04-15T07:50:21;9.10;99.90
38902;DHT22;24661;53.566;9.910;2023-04-15T07:52:48;9.00;99.90
38902;DHT22;24661;53.566;9.910;2023-04-15T07:55:14;9.10;99.90
38902;DHT22;24661;53.566;9.910;2023-04-15T07:57:41;9.10;99.90
38902;DHT22;24661;53.566;9.910;2023-04-15T08:00:07;9.10;99.90
38902;DHT22;24661;53.566;9.910;2023-04-15T08:02:34;9.10;99.90
38902;DHT22;24661;53.566;9.910;2023-04-15T08:04:59;9.20;99.90
38902;DHT22;24661;53.566;9.910;2023-04-15T08:07:27;9.10;99.90
38902;DHT22;24661;53.566;9.910;2023-04-15T08:09:53;9.10;99.90
38902;DHT22;24661;53.566;9.910;2023-04-15T08:12:21;9.10;99.90
38902;DHT22;24661;53.566;9.910;2023-04-15T08:14:46;9.20;99.90
38902;DHT22;24661;53.566;9.910;2023-04-15T08:17:12;9.20;99.90
38902;DHT22;24661;53.566;9.910;2023-04-15T08:19:38;9.20;99.90
38902;DHT22;24661;53.566;9.910;2023-04-15T08:22:04;9.20;99.90
38902;DHT22;24661;53.566;9.910;2023-04-15T08:24:32;9.20;99.90
38902;DHT22;24661;53.566;9.910;2023-04-15T08:26:58;9.30;99.90
38902;DHT22;24661;53.566;9.910;2023-04-15T08:29:24;9.40;99.90
38902;DHT22;24661;53.566;9.910;2023-04-15T08:31:50;9.20;99.90
38902;DHT22;24661;53.566;9.910;2023-04-15T08:34:16;9.30;99.90
38902;DHT22;24661;53.566;9.910;2023-04-15T08:36:42;9.30;99.90
38902;DHT22;24661;53.566;9.910;2023-04-15T08:39:08;9.30;99.90
38902;DHT22;24661;53.566;9.910;2023-04-15T08:41:45;9.40;99.90
38902;DHT22;24661;53.566;9.910;2023-04-15T08:44:13;9.40;99.90
38902;DHT22;24661;53.566;9.910;2023-04-15T08:46:40;9.40;99.90
38902;DHT22;24661;53.566;9.910;2023-04-15T08:49:10;9.40;99.90
38902;DHT22;24661;53.566;9.910;2023-04-15T08:51:41;9.40;99.90
38902;DHT22;24661;53.566;9.910;2023-04-15T08:54:10;9.40;99.90
38902;DHT22;24661;53.566;9.910;2023-04-15T08:56:38;9.50;99.90
38902;DHT22;24661;53.566;9.910;2023-04-15T08:59:03;9.50;99.90
38902;DHT22;24661;53.566;9.910;2023-04-15T09:01:31;9.50;99.90
38902;DHT22;24661;53.566;9.910;2023-04-15T09:03:56;9.50;99.90
38902;DHT22;24661;53.566;9.910;2023-04-15T09:06:23;9.60;99.90
38902;DHT22;24661;53.566;9.910;2023-04-15T09:08:50;9.60;99.90
38902;DHT22;24661;53.566;9.910;2023-04-15T09:11:16;9.60;99.90
38902;DHT22;24661;53.566;9.910;2023-04-15T09:13:43;9.60;99.90
38902;DHT22;24661;53.566;9.910;2023-04-15T09:16:09;9.60;99.90
38902;DHT22;24661;53.566;9.910;2023-04-15T09:18:38;9.70;99.90
38902;DHT22;24661;53.566;9.910;2023-04-15T09:23:35;9.80;99.90
38902;DHT22;24661;53.566;9.910;2023-04-15T09:26:02;9.80;99.90
38902;DHT22;24661;53.566;9.910;2023-04-15T09:28:28;9.90;99.90
38902;DHT22;24661;53.566;9.910;2023-04-15T09:30:57;9.90;99.90
38902;DHT22;24661;53.566;9.910;2023-04-15T09:33:23;10.00;99.90
38902;DHT22;24661;53.566;9.910;2023-04-15T09:36:04;10.10;99.90
38902;DHT22;24661;53.566;9.910;2023-04-15T09:38:31;10.10;99.90
38902;DHT22;24661;53.566;9.910;2023-04-15T09:40:57;10.10;99.90
38902;DHT22;24661;53.566;9.910;2023-04-15T09:43:43;10.30;99.90
38902;DHT22;24661;53.566;9.910;2023-04-15T09:46:10;10.40;99.90
38902;DHT22;24661;53.566;9.910;2023-04-15T09:48:36;10.50;99.90
38902;DHT22;24661;53.566;9.910;2023-04-15T09:51:02;10.60;99.90
38902;DHT22;24661;53.566;9.910;2023-04-15T09:53:28;10.70;99.90
38902;DHT22;24661;53.566;9.910;2023-04-15T09:55:56;10.90;99.90
38902;DHT22;24661;53.566;9.910;2023-04-15T09:58:28;11.00;99.90
38902;DHT22;24661;53.566;9.910;2023-04-15T10:00:55;11.20;99.90
38902;DHT22;24661;53.566;9.910;2023-04-15T10:03:23;11.40;99.90
38902;DHT22;24661;53.566;9.910;2023-04-15T10:05:51;11.50;99.90
38902;DHT22;24661;53.566;9.910;2023-04-15T10:08:26;11.70;99.90
38902;DHT22;24661;53.566;9.910;2023-04-15T10:10:57;11.80;99.90
38902;DHT22;24661;53.566;9.910;2023-04-15T10:13:25;11.90;99.90
38902;DHT22;24661;53.566;9.910;2023-04-15T10:15:59;12.20;99.90
38902;DHT22;24661;53.566;9.910;2023-04-15T10:18:27;12.20;99.90
38902;DHT22;24661;53.566;9.910;2023-04-15T10:20:53;12.20;99.90
38902;DHT22;24661;53.566;9.910;2023-04-15T10:23:23;12.30;99.90
38902;DHT22;24661;53.566;9.910;2023-04-15T10:25:51;12.30;99.90
38902;DHT22;24661;53.566;9.910;2023-04-15T10:28:19;12.50;99.90
38902;DHT22;24661;53.566;9.910;2023-04-15T10:30:47;12.70;99.90
38902;DHT22;24661;53.566;9.910;2023-04-15T10:33:16;12.70;99.90
38902;DHT22;24661;53.566;9.910;2023-04-15T10:35:42;12.70;99.90
38902;DHT22;24661;53.566;9.910;2023-04-15T10:38:37;12.90;99.90
38902;DHT22;24661;53.566;9.910;2023-04-15T10:41:19;13.00;99.90
38902;DHT22;24661;53.566;9.910;2023-04-15T10:43:52;13.00;99.90
38902;DHT22;24661;53.566;9.910;2023-04-15T10:46:23;13.00;99.90
38902;DHT22;24661;53.566;9.910;2023-04-15T10:48:51;13.00;99.90
38902;DHT22;24661;53.566;9.910;2023-04-15T10:51:30;13.10;99.90
38902;DHT22;24661;53.566;9.910;2023-04-15T10:54:00;13.40;99.90
38902;DHT22;24661;53.566;9.910;2023-04-15T10:56:29;13.50;99.90
38902;DHT22;24661;53.566;9.910;2023-04-15T10:58:58;13.50;99.90
38902;DHT22;24661;53.566;9.910;2023-04-15T11:01:55;13.60;99.90
38902;DHT22;24661;53.566;9.910;2023-04-15T11:04:50;13.60;99.90
38902;DHT22;24661;53.566;9.910;2023-04-15T11:07:36;13.70;99.90
38902;DHT22;24661;53.566;9.910;2023-04-15T11:10:03;15.00;99.90
38902;DHT22;24661;53.566;9.910;2023-04-15T11:12:57;13.90;99.90
38902;DHT22;24661;53.566;9.910;2023-04-15T11:15:37;14.00;99.90
38902;DHT22;24661;53.566;9.910;2023-04-15T11:18:16;14.00;99.90
38902;DHT22;24661;53.566;9.910;2023-04-15T11:20:47;14.20;99.90
38902;DHT22;24661;53.566;9.910;2023-04-15T11:23:16;14.10;99.90
38902;DHT22;24661;53.566;9.910;2023-04-15T11:25:43;14.10;99.90
38902;DHT22;24661;53.566;9.910;2023-04-15T11:28:11;14.00;99.90
38902;DHT22;24661;53.566;9.910;2023-04-15T11:30:41;14.60;99.90
38902;DHT22;24661;53.566;9.910;2023-04-15T11:33:08;14.00;99.90
38902;DHT22;24661;53.566;9.910;2023-04-15T11:35:34;14.10;99.90
38902;DHT22;24661;53.566;9.910;2023-04-15T11:38:04;14.10;99.90
38902;DHT22;24661;53.566;9.910;2023-04-15T11:40:37;14.10;99.90
38902;DHT22;24661;53.566;9.910;2023-04-15T11:43:14;14.00;99.90
38902;DHT22;24661;53.566;9.910;2023-04-15T11:45:59;14.00;99.90
38902;DHT22;24661;53.566;9.910;2023-04-15T11:48:42;13.90;99.90
38902;DHT22;24661;53.566;9.910;2023-04-15T11:51:13;13.90;99.90
38902;DHT22;24661;53.566;9.910;2023-04-15T11:53:46;13.90;99.90
38902;DHT22;24661;53.566;9.910;2023-04-15T11:56:19;13.80;99.90
38902;DHT22;24661;53.566;9.910;2023-04-15T11:58:55;13.90;99.90
38902;DHT22;24661;53.566;9.910;2023-04-15T12:01:35;13.90;99.90
38902;DHT22;24661;53.566;9.910;2023-04-15T12:04:13;13.80;99.90
38902;DHT22;24661;53.566;9.910;2023-04-15T12:06:39;13.60;99.90
38902;DHT22;24661;53.566;9.910;2023-04-15T12:11:41;13.80;99.90
38902;DHT22;24661;53.566;9.910;2023-04-15T12:14:25;14.00;99.90
38902;DHT22;24661;53.566;9.910;2023-04-15T12:17:00;14.20;99.90
38902;DHT22;24661;53.566;9.910;2023-04-15T12:19:28;14.20;99.90
38902;DHT22;24661;53.566;9.910;2023-04-15T12:22:03;14.20;99.90
38902;DHT22;24661;53.566;9.910;2023-04-15T12:24:34;14.00;99.90
38902;DHT22;24661;53.566;9.910;2023-04-15T12:27:02;14.00;99.90
38902;DHT22;24661;53.566;9.910;2023-04-15T12:29:29;13.70;99.90
38902;DHT22;24661;53.566;9.910;2023-04-15T12:37:06;13.80;99.90
38902;DHT22;24661;53.566;9.910;2023-04-15T12:39:36;13.80;99.90
38902;DHT22;24661;53.566;9.910;2023-04-15T12:42:04;13.90;99.90
38902;DHT22;24661;53.566;9.910;2023-04-15T12:44:32;14.00;99.90
38902;DHT22;24661;53.566;9.910;2023-04-15T12:57:04;13.70;99.90
38902;DHT22;24661;53.566;9.910;2023-04-15T12:59:34;13.80;99.90
38902;DHT22;24661;53.566;9.910;2023-04-15T13:01:59;13.80;99.90
38902;DHT22;24661;53.566;9.910;2023-04-15T13:04:27;13.80;99.90
38902;DHT22;24661;53.566;9.910;2023-04-15T13:06:58;13.90;99.90
38902;DHT22;24661;53.566;9.910;2023-04-15T13:09:23;14.10;99.90
38902;DHT22;24661;53.566;9.910;2023-04-15T13:11:49;14.20;99.90
38902;DHT22;24661;53.566;9.910;2023-04-15T13:14:15;14.20;99.90
38902;DHT22;24661;53.566;9.910;2023-04-15T13:16:41;14.20;99.90
38902;DHT22;24661;53.566;9.910;2023-04-15T13:19:07;14.40;99.90
38902;DHT22;24661;53.566;9.910;2023-04-15T13:21:32;14.30;99.90
38902;DHT22;24661;53.566;9.910;2023-04-15T13:23:59;14.50;99.90
38902;DHT22;24661;53.566;9.910;2023-04-15T13:26:29;14.60;99.90
38902;DHT22;24661;53.566;9.910;2023-04-15T13:28:56;14.60;99.90
38902;DHT22;24661;53.566;9.910;2023-04-15T13:31:25;14.50;99.90
38902;DHT22;24661;53.566;9.910;2023-04-15T13:33:53;14.60;99.90
38902;DHT22;24661;53.566;9.910;2023-04-15T13:36:20;14.70;99.90
38902;DHT22;24661;53.566;9.910;2023-04-15T13:38:52;14.70;99.90
38902;DHT22;24661;53.566;9.910;2023-04-15T13:41:22;14.80;99.90
38902;DHT22;24661;53.566;9.910;2023-04-15T13:43:48;14.90;99.90
38902;DHT22;24661;53.566;9.910;2023-04-15T13:46:14;14.90;99.90
38902;DHT22;24661;53.566;9.910;2023-04-15T13:48:50;14.90;99.90
38902;DHT22;24661;53.566;9.910;2023-04-15T13:51:20;15.00;99.90
38902;DHT22;24661;53.566;9.910;2023-04-15T13:53:46;15.20;99.90
38902;DHT22;24661;53.566;9.910;2023-04-15T13:56:12;15.20;99.90
38902;DHT22;24661;53.566;9.910;2023-04-15T13:58:40;15.30;99.90
38902;DHT22;24661;53.566;9.910;2023-04-15T14:01:14;15.40;99.90
38902;DHT22;24661;53.566;9.910;2023-04-15T14:03:43;15.40;99.90
38902;DHT22;24661;53.566;9.910;2023-04-15T14:06:09;15.50;99.90
38902;DHT22;24661;53.566;9.910;2023-04-15T14:08:40;15.60;99.90
38902;DHT22;24661;53.566;9.910;2023-04-15T14:11:07;15.40;99.90
38902;DHT22;24661;53.566;9.910;2023-04-15T14:13:36;15.50;99.90
38902;DHT22;24661;53.566;9.910;2023-04-15T14:16:11;15.70;99.90
38902;DHT22;24661;53.566;9.910;2023-04-15T14:18:54;15.50;99.90
38902;DHT22;24661;53.566;9.910;2023-04-15T14:21:35;15.30;99.90
38902;DHT22;24661;53.566;9.910;2023-04-15T14:24:05;15.10;99.90
38902;DHT22;24661;53.566;9.910;2023-04-15T14:26:37;16.30;99.90
38902;DHT22;24661;53.566;9.910;2023-04-15T14:29:11;15.40;99.90
38902;DHT22;24661;53.566;9.910;2023-04-15T14:31:41;15.20;99.90
38902;DHT22;24661;53.566;9.910;2023-04-15T14:34:10;15.60;99.90
38902;DHT22;24661;53.566;9.910;2023-04-15T14:36:37;15.20;99.90
38902;DHT22;24661;53.566;9.910;2023-04-15T14:39:11;15.60;99.90
38902;DHT22;24661;53.566;9.910;2023-04-15T14:41:44;15.50;99.90
38902;DHT22;24661;53.566;9.910;2023-04-15T14:44:21;15.30;99.90
38902;DHT22;24661;53.566;9.910;2023-04-15T14:46:57;15.40;99.90
38902;DHT22;24661;53.566;9.910;2023-04-15T14:49:34;15.70;99.90
38902;DHT22;24661;53.566;9.910;2023-04-15T14:52:03;15.80;99.90
38902;DHT22;24661;53.566;9.910;2023-04-15T14:54:34;15.40;99.90
38902;DHT22;24661;53.566;9.910;2023-04-15T14:57:08;15.60;99.90
38902;DHT22;24661;53.566;9.910;2023-04-15T14:59:40;15.70;99.90
38902;DHT22;24661;53.566;9.910;2023-04-15T15:02:17;13.80;99.90
38902;DHT22;24661;53.566;9.910;2023-04-15T15:05:00;15.50;99.90
38902;DHT22;24661;53.566;9.910;2023-04-15T15:07:26;15.00;99.90
38902;DHT22;24661;53.566;9.910;2023-04-15T15:09:54;14.80;99.90
38902;DHT22;24661;53.566;9.910;2023-04-15T15:12:21;14.70;99.90
38902;DHT22;24661;53.566;9.910;2023-04-15T15:14:54;14.60;99.90
38902;DHT22;24661;53.566;9.910;2023-04-15T15:17:23;14.60;99.90
38902;DHT22;24661;53.566;9.910;2023-04-15T15:19:55;14.70;99.90
38902;DHT22;24661;53.566;9.910;2023-04-15T15:22:22;14.30;99.90
38902;DHT22;24661;53.566;9.910;2023-04-15T15:24:57;14.20;99.90
38902;DHT22;24661;53.566;9.910;2023-04-15T15:27:38;14.00;99.90
38902;DHT22;24661;53.566;9.910;2023-04-15T15:30:10;12.80;99.90
38902;DHT22;24661;53.566;9.910;2023-04-15T15:32:41;13.90;99.90
38902;DHT22;24661;53.566;9.910;2023-04-15T15:35:08;13.90;99.90
38902;DHT22;24661;53.566;9.910;2023-04-15T15:37:37;14.40;99.90
38902;DHT22;24661;53.566;9.910;2023-04-15T15:40:06;14.10;99.90
38902;DHT22;24661;53.566;9.910;2023-04-15T15:42:33;13.90;99.90
38902;DHT22;24661;53.566;9.910;2023-04-15T15:45:02;13.90;99.90
38902;DHT22;24661;53.566;9.910;2023-04-15T15:47:30;13.80;99.90
38902;DHT22;24661;53.566;9.910;2023-04-15T15:50:00;14.50;99.90
38902;DHT22;24661;53.566;9.910;2023-04-15T15:52:29;13.70;99.90
38902;DHT22;24661;53.566;9.910;2023-04-15T15:54:55;13.60;99.90
38902;DHT22;24661;53.566;9.910;2023-04-15T15:57:22;13.60;99.90
38902;DHT22;24661;53.566;9.910;2023-04-15T15:59:48;13.60;99.90
38902;DHT22;24661;53.566;9.910;2023-04-15T16:02:14;13.60;99.90
38902;DHT22;24661;53.566;9.910;2023-04-15T16:04:49;13.60;99.90